Pagrindinis puslapis
METAR-TAF:

METAR-TAF

Oro uostai :

Estešundas-Frösön, Švedija

platuma: 63-11N, ilguma: 014-30E, Aukštis: 376 m

Dabartinis oras

Ataskaita buvo paskelbta 39 minutes, ne 09:50 UTC
Vėjas 8 kt iš Pietų
Temperatūra -6°C
Drėgmė 100%
Slėgis 1002 hPa
Matomumas: 2000 m
sniegas

METAR: ESNZ 070950Z 19008KT 2000 R12/P2000N R30/1000D SN VV004 M06/M06 Q1002

Laikas: 11:29 (10:29 UTC)

Prognozė

Ataskaita buvo paskelbta 1 valandą ir 59 minutes, ne 08:30 UTC
Prognozė galioja nuo 07 metu 09 UTC su 07 metu 18 UTC
Vėjas 9 kt iš Pietų
Matomumas: 8000 m
Su prošvaistėmis ne aukštis 3000 ft
sniegas
Laikinai
nuo 07 metu 09 UTC su 07 metu 12 UTC
Matomumas: 2000 m
Su prošvaistėmis ne aukštis 800 ft
Su prošvaistėmis ne aukštis 3000 ft, Liūtiniai kamuoliniai debesys.
sniegas

TAF: ESNZ 070830Z 0709/0718 18009KT 8000 -SN BKN030 TEMPO 0709/0712 2000 SHSN BKN008 BKN030CB

Orai ataskaitas ir orų prognozės (METAR, TAF).

turimą stotys yra geltonos ir raudonos taškus žemėlapyje.

Perkelti pele per norėdami pamatyti stoties vardą.

Tada spustelėkite, norėdami matyti oro stebėjimo ir prognozės.

Norėdami pakeisti žemėlapį: spustelėkite ant žalios mygtukų su juodo kryžiaus žemyn,; žalią mygtuką su brūkšneliu, jei norite nutolinti; arba žalių rodyklių gretimoms žemėlapius.


METAR-TAF: